Datto, AR (72424)

9:23 AM CDT on September 02, 2014 (GMT -0500)
Biggers | Change Station
CLOSE
Current Station
Personal Weather Station
Location: Biggers, AR
Elevation: 285 ft
Nearby Weather Stations

Elev 285 ft 36.33 °N, 90.81 °W | Updated 10 minutes ago

Partly Cloudy
Partly Cloudy
73.4 °F
Feels Like 71 °F
N
3.2
Wind Variable Wind from ESE

Today
High -- | Low -- °F
--% Chance of Precip.
Yesterday
High -- | Low -- °F
Precip. -- in
6:35 AM 7:29 PM
First Quarter, 52% visible
Pressure 30.01 in
Visibility 10.0 miles
Clouds Clear
Heat Index 71 °F
Dew Point 71 °F
Humidity 91%
Rainfall 0.02 in
Snow Depth Not available.
UV 3 out of 12
Pollen 8.70 out of 12
Air Quality Not available.
Flu Activity Not available.
METAR KARG 021415Z AUTO 17005KT 10SM CLR 24/19 A3001 RMK AO1

More Conditions Fewer Conditions

Pressure 30.01 in
Visibility 10.0 miles
Clouds Clear
Heat Index 71 °F
Dew Point 71 °F
Humidity 91%
Rainfall 0.02 in
Snow Depth Not available.
UV 3 out of 12
Pollen 8.70 out of 12
Air Quality Not available.
Flu Activity Not available.
METAR KARG 021415Z AUTO 17005KT 10SM CLR 24/19 A3001 RMK AO1

More Conditions Fewer Conditions

10-Day Weather Forecast

Almanac

Astronomy

Sep. 02, 2014 Rise Set
Actual Time 6:35 AM CDT 7:29 PM CDT
Civil Twilight 6:08 AM CDT 7:55 PM CDT
Nautical Twilight 5:37 AM CDT 8:26 PM CDT
Astronomical Twilight 5:05 AM CDT 8:58 PM CDT
Moon 2:07 PM CDT No Moon Set
Length of Visible Light 13h 46m
Length of Day
12h 54m
Tomorrow will be 2m 14s shorter.
First Quarter, 52% of the Moon is Illuminated
Today
First Quarter
Sep 8
Full
Sep 15
Last Quarter
Sep 24
New
Oct 1
First Quarter

Today's Extremes

State Highs State Lows

Community

WunderPhotos

Upload Photos

1,749,677 photos uploaded!

WunderBlogs® & News

Nearby

Snow Depth

Station Depth Elevation
No new snow has been reported.

Earthquake Activity

City Distance Mag. Time & Date
Tiptonville, Tennessee 67 miles 2.9 11:19 PM CDT
2014-08-31
Minimum magnitude displayed is 2.5.

Coastal Water Temperatures

Place Temperature
No Stations Reporting

Nearby Weather Stations